sensor_id;sensor_type;location;lat;lon;timestamp;P1;durP1;ratioP1;P2;durP2;ratioP2
5704;SDS011;2877;48.238;11.160;2023-05-10T00:01:52;1.40;;;1.30;;
5704;SDS011;2877;48.238;11.160;2023-05-10T00:04:17;1.57;;;1.47;;
5704;SDS011;2877;48.238;11.160;2023-05-10T00:06:43;1.40;;;1.40;;
5704;SDS011;2877;48.238;11.160;2023-05-10T00:09:08;1.20;;;1.13;;
5704;SDS011;2877;48.238;11.160;2023-05-10T00:11:34;2.10;;;1.40;;
5704;SDS011;2877;48.238;11.160;2023-05-10T00:14:00;1.20;;;1.20;;
5704;SDS011;2877;48.238;11.160;2023-05-10T00:16:25;1.30;;;1.17;;
5704;SDS011;2877;48.238;11.160;2023-05-10T00:18:51;1.50;;;1.40;;
5704;SDS011;2877;48.238;11.160;2023-05-10T00:21:16;1.20;;;1.20;;
5704;SDS011;2877;48.238;11.160;2023-05-10T00:23:42;1.03;;;1.03;;
5704;SDS011;2877;48.238;11.160;2023-05-10T00:26:07;1.50;;;1.10;;
5704;SDS011;2877;48.238;11.160;2023-05-10T00:28:33;2.13;;;1.00;;
5704;SDS011;2877;48.238;11.160;2023-05-10T00:30:58;0.97;;;0.97;;
5704;SDS011;2877;48.238;11.160;2023-05-10T00:33:24;1.00;;;1.00;;
5704;SDS011;2877;48.238;11.160;2023-05-10T00:35:49;0.80;;;0.80;;
5704;SDS011;2877;48.238;11.160;2023-05-10T00:38:15;1.77;;;1.20;;
5704;SDS011;2877;48.238;11.160;2023-05-10T00:40:40;1.00;;;1.00;;
5704;SDS011;2877;48.238;11.160;2023-05-10T00:43:06;0.90;;;0.90;;
5704;SDS011;2877;48.238;11.160;2023-05-10T00:45:34;0.90;;;0.90;;
5704;SDS011;2877;48.238;11.160;2023-05-10T00:48:02;1.10;;;1.00;;
5704;SDS011;2877;48.238;11.160;2023-05-10T00:50:28;1.17;;;1.13;;
5704;SDS011;2877;48.238;11.160;2023-05-10T00:52:55;1.60;;;0.80;;
5704;SDS011;2877;48.238;11.160;2023-05-10T00:55:21;5.53;;;0.90;;
5704;SDS011;2877;48.238;11.160;2023-05-10T00:57:47;0.80;;;0.80;;
5704;SDS011;2877;48.238;11.160;2023-05-10T01:00:13;1.63;;;1.13;;
5704;SDS011;2877;48.238;11.160;2023-05-10T01:02:43;0.70;;;0.70;;
5704;SDS011;2877;48.238;11.160;2023-05-10T01:05:09;2.40;;;0.90;;
5704;SDS011;2877;48.238;11.160;2023-05-10T01:07:34;0.90;;;0.90;;
5704;SDS011;2877;48.238;11.160;2023-05-10T01:10:00;5.60;;;0.80;;
5704;SDS011;2877;48.238;11.160;2023-05-10T01:12:26;1.13;;;0.70;;
5704;SDS011;2877;48.238;11.160;2023-05-10T01:14:51;0.60;;;0.60;;
5704;SDS011;2877;48.238;11.160;2023-05-10T01:17:18;1.33;;;0.60;;
5704;SDS011;2877;48.238;11.160;2023-05-10T01:19:45;2.20;;;0.77;;
5704;SDS011;2877;48.238;11.160;2023-05-10T01:36:35;0.83;;;0.83;;
5704;SDS011;2877;48.238;11.160;2023-05-10T01:39:21;2.00;;;0.60;;
5704;SDS011;2877;48.238;11.160;2023-05-10T01:42:07;0.80;;;0.80;;
5704;SDS011;2877;48.238;11.160;2023-05-10T01:47:33;0.80;;;0.80;;
5704;SDS011;2877;48.238;11.160;2023-05-10T01:50:04;0.83;;;0.83;;
5704;SDS011;2877;48.238;11.160;2023-05-10T01:52:38;0.60;;;0.60;;
5704;SDS011;2877;48.238;11.160;2023-05-10T01:55:09;0.90;;;0.90;;
5704;SDS011;2877;48.238;11.160;2023-05-10T01:57:40;0.77;;;0.70;;
5704;SDS011;2877;48.238;11.160;2023-05-10T02:00:08;0.70;;;0.70;;
5704;SDS011;2877;48.238;11.160;2023-05-10T02:02:39;0.87;;;0.87;;
5704;SDS011;2877;48.238;11.160;2023-05-10T02:05:07;0.70;;;0.70;;
5704;SDS011;2877;48.238;11.160;2023-05-10T02:07:35;0.70;;;0.60;;
5704;SDS011;2877;48.238;11.160;2023-05-10T02:10:02;0.60;;;0.60;;
5704;SDS011;2877;48.238;11.160;2023-05-10T02:12:30;0.83;;;0.80;;
5704;SDS011;2877;48.238;11.160;2023-05-10T02:15:00;0.70;;;0.70;;
5704;SDS011;2877;48.238;11.160;2023-05-10T02:17:29;0.73;;;0.73;;
5704;SDS011;2877;48.238;11.160;2023-05-10T02:19:56;0.80;;;0.80;;
5704;SDS011;2877;48.238;11.160;2023-05-10T02:22:24;1.23;;;1.07;;
5704;SDS011;2877;48.238;11.160;2023-05-10T02:24:52;1.10;;;1.00;;
5704;SDS011;2877;48.238;11.160;2023-05-10T02:27:19;1.00;;;0.90;;
5704;SDS011;2877;48.238;11.160;2023-05-10T02:29:46;1.10;;;0.97;;
5704;SDS011;2877;48.238;11.160;2023-05-10T02:32:12;1.00;;;1.00;;
5704;SDS011;2877;48.238;11.160;2023-05-10T02:34:39;0.90;;;0.90;;
5704;SDS011;2877;48.238;11.160;2023-05-10T02:37:05;0.80;;;0.80;;
5704;SDS011;2877;48.238;11.160;2023-05-10T02:39:32;0.93;;;0.93;;
5704;SDS011;2877;48.238;11.160;2023-05-10T02:41:57;3.70;;;0.93;;
5704;SDS011;2877;48.238;11.160;2023-05-10T02:44:23;1.77;;;1.10;;
5704;SDS011;2877;48.238;11.160;2023-05-10T02:46:53;1.00;;;0.83;;
5704;SDS011;2877;48.238;11.160;2023-05-10T02:49:20;0.90;;;0.90;;
5704;SDS011;2877;48.238;11.160;2023-05-10T02:51:56;1.13;;;1.00;;
5704;SDS011;2877;48.238;11.160;2023-05-10T02:54:29;0.73;;;0.73;;
5704;SDS011;2877;48.238;11.160;2023-05-10T02:56:58;1.00;;;1.00;;
5704;SDS011;2877;48.238;11.160;2023-05-10T02:59:25;1.03;;;1.03;;
5704;SDS011;2877;48.238;11.160;2023-05-10T03:01:51;1.30;;;1.20;;
5704;SDS011;2877;48.238;11.160;2023-05-10T03:04:17;1.37;;;0.80;;
5704;SDS011;2877;48.238;11.160;2023-05-10T03:06:42;0.90;;;0.90;;
5704;SDS011;2877;48.238;11.160;2023-05-10T03:09:08;1.00;;;1.00;;
5704;SDS011;2877;48.238;11.160;2023-05-10T03:17:10;1.00;;;1.00;;
5704;SDS011;2877;48.238;11.160;2023-05-10T03:19:45;0.90;;;0.90;;
5704;SDS011;2877;48.238;11.160;2023-05-10T03:22:21;0.93;;;0.93;;
5704;SDS011;2877;48.238;11.160;2023-05-10T03:25:06;1.17;;;1.17;;
5704;SDS011;2877;48.238;11.160;2023-05-10T03:27:35;0.90;;;0.90;;
5704;SDS011;2877;48.238;11.160;2023-05-10T03:30:03;1.00;;;1.00;;
5704;SDS011;2877;48.238;11.160;2023-05-10T03:32:30;0.90;;;0.90;;
5704;SDS011;2877;48.238;11.160;2023-05-10T03:34:57;0.97;;;0.97;;
5704;SDS011;2877;48.238;11.160;2023-05-10T03:37:22;1.10;;;1.10;;
5704;SDS011;2877;48.238;11.160;2023-05-10T03:39:48;1.17;;;1.10;;
5704;SDS011;2877;48.238;11.160;2023-05-10T03:42:13;0.90;;;0.90;;
5704;SDS011;2877;48.238;11.160;2023-05-10T03:44:39;1.10;;;1.10;;
5704;SDS011;2877;48.238;11.160;2023-05-10T03:47:05;1.00;;;1.00;;
5704;SDS011;2877;48.238;11.160;2023-05-10T03:49:30;1.20;;;1.20;;
5704;SDS011;2877;48.238;11.160;2023-05-10T03:51:56;2.97;;;1.10;;
5704;SDS011;2877;48.238;11.160;2023-05-10T03:54:21;1.30;;;1.20;;
5704;SDS011;2877;48.238;11.160;2023-05-10T03:56:47;1.20;;;1.20;;
5704;SDS011;2877;48.238;11.160;2023-05-10T03:59:13;1.53;;;1.10;;
5704;SDS011;2877;48.238;11.160;2023-05-10T04:01:38;1.00;;;1.00;;
5704;SDS011;2877;48.238;11.160;2023-05-10T04:04:04;1.07;;;1.07;;
5704;SDS011;2877;48.238;11.160;2023-05-10T04:06:29;0.90;;;0.90;;
5704;SDS011;2877;48.238;11.160;2023-05-10T04:08:55;1.70;;;1.00;;
5704;SDS011;2877;48.238;11.160;2023-05-10T04:11:21;6.43;;;1.03;;
5704;SDS011;2877;48.238;11.160;2023-05-10T04:13:47;0.90;;;0.90;;
5704;SDS011;2877;48.238;11.160;2023-05-10T04:16:12;2.20;;;0.90;;
5704;SDS011;2877;48.238;11.160;2023-05-10T04:18:38;0.70;;;0.70;;
5704;SDS011;2877;48.238;11.160;2023-05-10T04:21:04;3.73;;;0.90;;
5704;SDS011;2877;48.238;11.160;2023-05-10T04:23:35;0.80;;;0.80;;
5704;SDS011;2877;48.238;11.160;2023-05-10T04:26:01;0.60;;;0.60;;
5704;SDS011;2877;48.238;11.160;2023-05-10T04:28:27;0.70;;;0.70;;
5704;SDS011;2877;48.238;11.160;2023-05-10T04:30:52;0.60;;;0.60;;
5704;SDS011;2877;48.238;11.160;2023-05-10T04:33:18;0.53;;;0.53;;
5704;SDS011;2877;48.238;11.160;2023-05-10T04:35:43;5.33;;;1.77;;
5704;SDS011;2877;48.238;11.160;2023-05-10T04:38:10;0.40;;;0.40;;
5704;SDS011;2877;48.238;11.160;2023-05-10T04:40:35;0.77;;;0.40;;
5704;SDS011;2877;48.238;11.160;2023-05-10T04:43:01;0.50;;;0.50;;
5704;SDS011;2877;48.238;11.160;2023-05-10T04:45:26;1.53;;;0.50;;
5704;SDS011;2877;48.238;11.160;2023-05-10T04:47:52;0.80;;;0.40;;
5704;SDS011;2877;48.238;11.160;2023-05-10T04:50:17;0.50;;;0.50;;
5704;SDS011;2877;48.238;11.160;2023-05-10T04:52:43;0.70;;;0.50;;
5704;SDS011;2877;48.238;11.160;2023-05-10T04:55:08;0.83;;;0.63;;
5704;SDS011;2877;48.238;11.160;2023-05-10T04:57:34;0.50;;;0.50;;
5704;SDS011;2877;48.238;11.160;2023-05-10T05:00:00;0.50;;;0.50;;
5704;SDS011;2877;48.238;11.160;2023-05-10T05:02:25;0.60;;;0.60;;
5704;SDS011;2877;48.238;11.160;2023-05-10T05:04:51;0.70;;;0.70;;
5704;SDS011;2877;48.238;11.160;2023-05-10T05:07:16;0.60;;;0.60;;
5704;SDS011;2877;48.238;11.160;2023-05-10T05:09:42;0.70;;;0.70;;
5704;SDS011;2877;48.238;11.160;2023-05-10T05:12:07;0.67;;;0.67;;
5704;SDS011;2877;48.238;11.160;2023-05-10T05:14:38;0.60;;;0.60;;
5704;SDS011;2877;48.238;11.160;2023-05-10T05:17:04;2.50;;;0.80;;
5704;SDS011;2877;48.238;11.160;2023-05-10T05:19:30;0.83;;;0.83;;
5704;SDS011;2877;48.238;11.160;2023-05-10T05:21:56;1.43;;;0.60;;
5704;SDS011;2877;48.238;11.160;2023-05-10T05:24:22;0.70;;;0.70;;
5704;SDS011;2877;48.238;11.160;2023-05-10T05:26:48;1.40;;;1.40;;
5704;SDS011;2877;48.238;11.160;2023-05-10T05:29:13;0.93;;;0.93;;
5704;SDS011;2877;48.238;11.160;2023-05-10T05:31:39;1.07;;;1.07;;
5704;SDS011;2877;48.238;11.160;2023-05-10T05:34:04;1.73;;;1.63;;
5704;SDS011;2877;48.238;11.160;2023-05-10T05:36:30;1.37;;;1.27;;
5704;SDS011;2877;48.238;11.160;2023-05-10T05:38:56;1.07;;;0.90;;
5704;SDS011;2877;48.238;11.160;2023-05-10T05:41:22;1.20;;;0.80;;
5704;SDS011;2877;48.238;11.160;2023-05-10T05:43:48;1.30;;;1.20;;
5704;SDS011;2877;48.238;11.160;2023-05-10T05:46:14;1.23;;;1.13;;
5704;SDS011;2877;48.238;11.160;2023-05-10T05:48:40;1.63;;;0.90;;
5704;SDS011;2877;48.238;11.160;2023-05-10T05:51:05;0.90;;;0.90;;
5704;SDS011;2877;48.238;11.160;2023-05-10T05:53:30;0.90;;;0.90;;
5704;SDS011;2877;48.238;11.160;2023-05-10T05:55:57;1.53;;;1.20;;
5704;SDS011;2877;48.238;11.160;2023-05-10T05:58:23;4.30;;;1.30;;
5704;SDS011;2877;48.238;11.160;2023-05-10T06:00:50;1.33;;;1.30;;
5704;SDS011;2877;48.238;11.160;2023-05-10T06:03:16;3.60;;;1.00;;
5704;SDS011;2877;48.238;11.160;2023-05-10T06:05:42;1.30;;;1.30;;
5704;SDS011;2877;48.238;11.160;2023-05-10T06:08:08;1.10;;;1.10;;
5704;SDS011;2877;48.238;11.160;2023-05-10T06:10:34;2.30;;;1.20;;
5704;SDS011;2877;48.238;11.160;2023-05-10T06:13:00;1.10;;;1.10;;
5704;SDS011;2877;48.238;11.160;2023-05-10T06:15:25;3.33;;;1.70;;
5704;SDS011;2877;48.238;11.160;2023-05-10T06:17:52;1.53;;;1.27;;
5704;SDS011;2877;48.238;11.160;2023-05-10T06:20:17;1.40;;;1.40;;
5704;SDS011;2877;48.238;11.160;2023-05-10T06:22:43;1.47;;;1.47;;
5704;SDS011;2877;48.238;11.160;2023-05-10T06:25:09;1.60;;;1.50;;
5704;SDS011;2877;48.238;11.160;2023-05-10T06:27:34;1.40;;;1.30;;
5704;SDS011;2877;48.238;11.160;2023-05-10T06:30:00;1.70;;;1.60;;
5704;SDS011;2877;48.238;11.160;2023-05-10T06:32:26;1.60;;;1.53;;
5704;SDS011;2877;48.238;11.160;2023-05-10T06:34:51;1.40;;;1.40;;
5704;SDS011;2877;48.238;11.160;2023-05-10T06:37:17;1.30;;;1.20;;
5704;SDS011;2877;48.238;11.160;2023-05-10T06:39:42;2.53;;;1.33;;
5704;SDS011;2877;48.238;11.160;2023-05-10T06:42:08;1.70;;;1.10;;
5704;SDS011;2877;48.238;11.160;2023-05-10T06:44:33;3.30;;;1.33;;
5704;SDS011;2877;48.238;11.160;2023-05-10T06:46:59;2.80;;;1.20;;
5704;SDS011;2877;48.238;11.160;2023-05-10T06:49:24;1.20;;;1.20;;
5704;SDS011;2877;48.238;11.160;2023-05-10T06:51:50;4.93;;;2.33;;
5704;SDS011;2877;48.238;11.160;2023-05-10T06:54:15;1.20;;;1.10;;
5704;SDS011;2877;48.238;11.160;2023-05-10T06:56:41;3.50;;;1.10;;
5704;SDS011;2877;48.238;11.160;2023-05-10T06:59:07;1.23;;;1.13;;
5704;SDS011;2877;48.238;11.160;2023-05-10T07:01:32;1.57;;;1.20;;
5704;SDS011;2877;48.238;11.160;2023-05-10T07:03:58;1.37;;;1.27;;
5704;SDS011;2877;48.238;11.160;2023-05-10T07:06:23;1.00;;;1.00;;
5704;SDS011;2877;48.238;11.160;2023-05-10T07:08:49;1.10;;;1.10;;
5704;SDS011;2877;48.238;11.160;2023-05-10T07:11:14;1.07;;;0.97;;
5704;SDS011;2877;48.238;11.160;2023-05-10T07:13:40;2.63;;;1.87;;
5704;SDS011;2877;48.238;11.160;2023-05-10T07:16:08;1.43;;;1.10;;
5704;SDS011;2877;48.238;11.160;2023-05-10T07:18:35;1.00;;;1.00;;
5704;SDS011;2877;48.238;11.160;2023-05-10T07:21:01;1.03;;;0.90;;
5704;SDS011;2877;48.238;11.160;2023-05-10T07:23:27;1.27;;;1.17;;
5704;SDS011;2877;48.238;11.160;2023-05-10T07:25:52;1.00;;;0.90;;
5704;SDS011;2877;48.238;11.160;2023-05-10T07:28:18;0.90;;;0.90;;
5704;SDS011;2877;48.238;11.160;2023-05-10T07:30:44;0.70;;;0.70;;
5704;SDS011;2877;48.238;11.160;2023-05-10T07:33:11;1.00;;;0.80;;
5704;SDS011;2877;48.238;11.160;2023-05-10T07:35:38;0.77;;;0.77;;
5704;SDS011;2877;48.238;11.160;2023-05-10T07:38:03;1.60;;;1.50;;
5704;SDS011;2877;48.238;11.160;2023-05-10T07:40:29;0.73;;;0.73;;
5704;SDS011;2877;48.238;11.160;2023-05-10T07:42:55;0.90;;;0.73;;
5704;SDS011;2877;48.238;11.160;2023-05-10T07:45:20;1.17;;;1.07;;
5704;SDS011;2877;48.238;11.160;2023-05-10T07:47:46;0.90;;;0.90;;
5704;SDS011;2877;48.238;11.160;2023-05-10T07:50:12;0.80;;;0.80;;
5704;SDS011;2877;48.238;11.160;2023-05-10T07:52:37;1.37;;;1.00;;
5704;SDS011;2877;48.238;11.160;2023-05-10T07:55:03;0.90;;;0.90;;
5704;SDS011;2877;48.238;11.160;2023-05-10T07:57:28;4.20;;;0.90;;
5704;SDS011;2877;48.238;11.160;2023-05-10T07:59:54;0.80;;;0.80;;
5704;SDS011;2877;48.238;11.160;2023-05-10T08:02:20;1.67;;;0.90;;
5704;SDS011;2877;48.238;11.160;2023-05-10T08:04:45;0.60;;;0.60;;
5704;SDS011;2877;48.238;11.160;2023-05-10T08:07:11;3.13;;;0.70;;
5704;SDS011;2877;48.238;11.160;2023-05-10T08:09:36;2.00;;;0.77;;
5704;SDS011;2877;48.238;11.160;2023-05-10T08:12:02;1.13;;;0.60;;
5704;SDS011;2877;48.238;11.160;2023-05-10T08:14:28;0.70;;;0.70;;
5704;SDS011;2877;48.238;11.160;2023-05-10T08:16:54;0.67;;;0.67;;
5704;SDS011;2877;48.238;11.160;2023-05-10T08:19:20;3.80;;;0.87;;
5704;SDS011;2877;48.238;11.160;2023-05-10T08:21:46;0.60;;;0.60;;
5704;SDS011;2877;48.238;11.160;2023-05-10T08:24:12;0.83;;;0.70;;
5704;SDS011;2877;48.238;11.160;2023-05-10T08:26:37;0.60;;;0.60;;
5704;SDS011;2877;48.238;11.160;2023-05-10T08:29:03;0.50;;;0.50;;
5704;SDS011;2877;48.238;11.160;2023-05-10T08:31:28;1.13;;;0.60;;
5704;SDS011;2877;48.238;11.160;2023-05-10T08:33:54;0.70;;;0.63;;
5704;SDS011;2877;48.238;11.160;2023-05-10T08:36:19;0.60;;;0.60;;
5704;SDS011;2877;48.238;11.160;2023-05-10T08:38:53;0.60;;;0.60;;
5704;SDS011;2877;48.238;11.160;2023-05-10T08:41:22;0.80;;;0.80;;
5704;SDS011;2877;48.238;11.160;2023-05-10T08:43:51;0.67;;;0.67;;
5704;SDS011;2877;48.238;11.160;2023-05-10T08:46:19;1.23;;;0.87;;
5704;SDS011;2877;48.238;11.160;2023-05-10T08:48:46;3.37;;;0.80;;
5704;SDS011;2877;48.238;11.160;2023-05-10T08:51:14;0.67;;;0.67;;
5704;SDS011;2877;48.238;11.160;2023-05-10T08:53:46;0.57;;;0.57;;
5704;SDS011;2877;48.238;11.160;2023-05-10T08:56:12;0.90;;;0.70;;
5704;SDS011;2877;48.238;11.160;2023-05-10T08:58:38;14.57;;;0.80;;
5704;SDS011;2877;48.238;11.160;2023-05-10T09:01:04;0.80;;;0.80;;
5704;SDS011;2877;48.238;11.160;2023-05-10T09:03:30;2.20;;;0.80;;
5704;SDS011;2877;48.238;11.160;2023-05-10T09:05:57;2.10;;;0.60;;
5704;SDS011;2877;48.238;11.160;2023-05-10T09:08:23;0.70;;;0.70;;
5704;SDS011;2877;48.238;11.160;2023-05-10T09:10:52;2.47;;;0.60;;
5704;SDS011;2877;48.238;11.160;2023-05-10T09:13:19;1.90;;;0.60;;
5704;SDS011;2877;48.238;11.160;2023-05-10T09:15:46;1.63;;;0.80;;
5704;SDS011;2877;48.238;11.160;2023-05-10T09:18:12;1.03;;;1.03;;
5704;SDS011;2877;48.238;11.160;2023-05-10T09:20:38;1.00;;;0.90;;
5704;SDS011;2877;48.238;11.160;2023-05-10T09:23:04;0.80;;;0.80;;
5704;SDS011;2877;48.238;11.160;2023-05-10T09:25:30;0.70;;;0.70;;
5704;SDS011;2877;48.238;11.160;2023-05-10T09:27:58;3.60;;;0.90;;
5704;SDS011;2877;48.238;11.160;2023-05-10T09:30:25;1.80;;;0.97;;
5704;SDS011;2877;48.238;11.160;2023-05-10T09:32:52;1.30;;;1.20;;
5704;SDS011;2877;48.238;11.160;2023-05-10T09:35:19;1.13;;;0.80;;
5704;SDS011;2877;48.238;11.160;2023-05-10T09:37:48;0.80;;;0.80;;
5704;SDS011;2877;48.238;11.160;2023-05-10T09:40:15;2.30;;;0.80;;
5704;SDS011;2877;48.238;11.160;2023-05-10T09:42:43;2.30;;;0.60;;
5704;SDS011;2877;48.238;11.160;2023-05-10T09:45:16;1.27;;;0.97;;
5704;SDS011;2877;48.238;11.160;2023-05-10T09:47:42;0.60;;;0.60;;
5704;SDS011;2877;48.238;11.160;2023-05-10T09:50:08;1.50;;;1.23;;
5704;SDS011;2877;48.238;11.160;2023-05-10T09:52:47;0.80;;;0.73;;
5704;SDS011;2877;48.238;11.160;2023-05-10T09:55:12;0.90;;;0.90;;
5704;SDS011;2877;48.238;11.160;2023-05-10T09:57:38;0.90;;;0.90;;
5704;SDS011;2877;48.238;11.160;2023-05-10T10:00:04;1.23;;;0.90;;
5704;SDS011;2877;48.238;11.160;2023-05-10T10:02:31;0.93;;;0.80;;
5704;SDS011;2877;48.238;11.160;2023-05-10T10:04:57;2.20;;;0.80;;
5704;SDS011;2877;48.238;11.160;2023-05-10T10:07:23;0.73;;;0.70;;
5704;SDS011;2877;48.238;11.160;2023-05-10T10:09:52;0.70;;;0.70;;
5704;SDS011;2877;48.238;11.160;2023-05-10T10:12:18;0.80;;;0.70;;
5704;SDS011;2877;48.238;11.160;2023-05-10T10:14:45;3.13;;;0.80;;
5704;SDS011;2877;48.238;11.160;2023-05-10T10:17:13;0.70;;;0.70;;
5704;SDS011;2877;48.238;11.160;2023-05-10T10:19:38;0.70;;;0.70;;
5704;SDS011;2877;48.238;11.160;2023-05-10T10:22:05;0.80;;;0.73;;
5704;SDS011;2877;48.238;11.160;2023-05-10T10:24:31;1.23;;;0.80;;
5704;SDS011;2877;48.238;11.160;2023-05-10T10:26:59;0.57;;;0.57;;
5704;SDS011;2877;48.238;11.160;2023-05-10T10:29:50;3.00;;;0.90;;
5704;SDS011;2877;48.238;11.160;2023-05-10T10:35:32;1.20;;;1.10;;
5704;SDS011;2877;48.238;11.160;2023-05-10T10:37:58;5.33;;;1.43;;
5704;SDS011;2877;48.238;11.160;2023-05-10T10:40:25;4.60;;;1.20;;
5704;SDS011;2877;48.238;11.160;2023-05-10T10:42:53;2.03;;;1.60;;
5704;SDS011;2877;48.238;11.160;2023-05-10T10:45:19;3.17;;;2.00;;
5704;SDS011;2877;48.238;11.160;2023-05-10T10:47:45;1.50;;;1.40;;
5704;SDS011;2877;48.238;11.160;2023-05-10T10:50:11;2.10;;;1.00;;
5704;SDS011;2877;48.238;11.160;2023-05-10T10:52:43;2.23;;;1.10;;
5704;SDS011;2877;48.238;11.160;2023-05-10T10:55:28;1.47;;;1.20;;
5704;SDS011;2877;48.238;11.160;2023-05-10T10:57:55;2.70;;;1.60;;
5704;SDS011;2877;48.238;11.160;2023-05-10T11:05:37;1.70;;;1.60;;
5704;SDS011;2877;48.238;11.160;2023-05-10T11:13:28;3.00;;;2.00;;
5704;SDS011;2877;48.238;11.160;2023-05-10T11:16:17;1.87;;;1.77;;
5704;SDS011;2877;48.238;11.160;2023-05-10T11:19:01;1.67;;;1.57;;
5704;SDS011;2877;48.238;11.160;2023-05-10T11:21:32;1.87;;;1.77;;
5704;SDS011;2877;48.238;11.160;2023-05-10T11:24:00;2.67;;;1.90;;
5704;SDS011;2877;48.238;11.160;2023-05-10T11:26:31;1.87;;;1.70;;
5704;SDS011;2877;48.238;11.160;2023-05-10T11:28:58;2.83;;;1.73;;
5704;SDS011;2877;48.238;11.160;2023-05-10T11:31:25;2.20;;;1.47;;
5704;SDS011;2877;48.238;11.160;2023-05-10T11:33:58;0.90;;;0.90;;
5704;SDS011;2877;48.238;11.160;2023-05-10T11:36:27;0.90;;;0.90;;
5704;SDS011;2877;48.238;11.160;2023-05-10T11:38:54;1.07;;;1.07;;
5704;SDS011;2877;48.238;11.160;2023-05-10T11:41:22;2.10;;;1.10;;
5704;SDS011;2877;48.238;11.160;2023-05-10T11:43:52;1.30;;;1.10;;
5704;SDS011;2877;48.238;11.160;2023-05-10T11:46:20;1.17;;;1.13;;
5704;SDS011;2877;48.238;11.160;2023-05-10T11:48:48;2.13;;;1.40;;
5704;SDS011;2877;48.238;11.160;2023-05-10T11:51:19;1.67;;;1.20;;
5704;SDS011;2877;48.238;11.160;2023-05-10T11:53:45;1.20;;;1.10;;
5704;SDS011;2877;48.238;11.160;2023-05-10T11:56:11;2.43;;;1.20;;
5704;SDS011;2877;48.238;11.160;2023-05-10T11:58:37;3.73;;;1.27;;
5704;SDS011;2877;48.238;11.160;2023-05-10T12:01:04;0.80;;;0.80;;
5704;SDS011;2877;48.238;11.160;2023-05-10T12:03:31;1.00;;;1.00;;
5704;SDS011;2877;48.238;11.160;2023-05-10T12:05:57;1.10;;;1.10;;
5704;SDS011;2877;48.238;11.160;2023-05-10T12:08:25;1.33;;;0.93;;
5704;SDS011;2877;48.238;11.160;2023-05-10T12:10:52;3.23;;;1.47;;
5704;SDS011;2877;48.238;11.160;2023-05-10T12:13:19;1.17;;;1.07;;
5704;SDS011;2877;48.238;11.160;2023-05-10T12:15:45;2.20;;;1.10;;
5704;SDS011;2877;48.238;11.160;2023-05-10T12:18:11;1.27;;;0.90;;
5704;SDS011;2877;48.238;11.160;2023-05-10T12:20:37;1.67;;;1.00;;
5704;SDS011;2877;48.238;11.160;2023-05-10T12:23:04;2.10;;;0.90;;
5704;SDS011;2877;48.238;11.160;2023-05-10T12:25:31;2.03;;;1.00;;
5704;SDS011;2877;48.238;11.160;2023-05-10T12:28:05;1.67;;;1.10;;
5704;SDS011;2877;48.238;11.160;2023-05-10T12:30:33;1.17;;;0.93;;
5704;SDS011;2877;48.238;11.160;2023-05-10T12:33:12;1.40;;;1.30;;
5704;SDS011;2877;48.238;11.160;2023-05-10T12:35:48;2.10;;;1.23;;
5704;SDS011;2877;48.238;11.160;2023-05-10T12:38:28;1.13;;;0.93;;
5704;SDS011;2877;48.238;11.160;2023-05-10T12:41:07;1.60;;;1.50;;
5704;SDS011;2877;48.238;11.160;2023-05-10T12:43:34;4.50;;;1.70;;
5704;SDS011;2877;48.238;11.160;2023-05-10T12:46:05;1.43;;;1.33;;
5704;SDS011;2877;48.238;11.160;2023-05-10T12:48:30;3.53;;;1.87;;
5704;SDS011;2877;48.238;11.160;2023-05-10T12:50:56;8.73;;;2.30;;
5704;SDS011;2877;48.238;11.160;2023-05-10T12:53:22;3.20;;;1.53;;
5704;SDS011;2877;48.238;11.160;2023-05-10T12:55:47;2.13;;;1.90;;
5704;SDS011;2877;48.238;11.160;2023-05-10T12:58:13;5.50;;;2.07;;
5704;SDS011;2877;48.238;11.160;2023-05-10T13:00:39;3.20;;;2.17;;
5704;SDS011;2877;48.238;11.160;2023-05-10T13:03:04;1.70;;;1.60;;
5704;SDS011;2877;48.238;11.160;2023-05-10T13:05:31;2.70;;;1.50;;
5704;SDS011;2877;48.238;11.160;2023-05-10T13:08:00;0.93;;;0.93;;
5704;SDS011;2877;48.238;11.160;2023-05-10T13:10:26;1.40;;;1.30;;
5704;SDS011;2877;48.238;11.160;2023-05-10T13:12:52;1.43;;;1.33;;
5704;SDS011;2877;48.238;11.160;2023-05-10T13:15:18;2.77;;;1.60;;
5704;SDS011;2877;48.238;11.160;2023-05-10T13:17:43;1.20;;;1.10;;
5704;SDS011;2877;48.238;11.160;2023-05-10T13:20:10;0.80;;;0.80;;
5704;SDS011;2877;48.238;11.160;2023-05-10T13:22:36;0.90;;;0.90;;
5704;SDS011;2877;48.238;11.160;2023-05-10T13:25:01;0.83;;;0.80;;
5704;SDS011;2877;48.238;11.160;2023-05-10T13:27:27;1.03;;;0.80;;
5704;SDS011;2877;48.238;11.160;2023-05-10T13:29:52;1.43;;;1.20;;
5704;SDS011;2877;48.238;11.160;2023-05-10T13:32:18;3.17;;;1.00;;
5704;SDS011;2877;48.238;11.160;2023-05-10T13:34:43;3.80;;;0.80;;
5704;SDS011;2877;48.238;11.160;2023-05-10T13:37:09;1.00;;;0.90;;
5704;SDS011;2877;48.238;11.160;2023-05-10T13:39:35;1.00;;;0.90;;
5704;SDS011;2877;48.238;11.160;2023-05-10T13:42:02;6.67;;;1.33;;
5704;SDS011;2877;48.238;11.160;2023-05-10T13:44:28;1.03;;;1.03;;
5704;SDS011;2877;48.238;11.160;2023-05-10T13:46:53;1.20;;;1.10;;
5704;SDS011;2877;48.238;11.160;2023-05-10T13:49:20;1.90;;;1.17;;
5704;SDS011;2877;48.238;11.160;2023-05-10T13:51:46;3.33;;;0.93;;
5704;SDS011;2877;48.238;11.160;2023-05-10T13:54:11;1.30;;;1.20;;
5704;SDS011;2877;48.238;11.160;2023-05-10T13:56:37;2.70;;;1.50;;
5704;SDS011;2877;48.238;11.160;2023-05-10T13:59:02;5.67;;;1.40;;
5704;SDS011;2877;48.238;11.160;2023-05-10T14:01:28;1.20;;;0.90;;
5704;SDS011;2877;48.238;11.160;2023-05-10T14:03:54;4.80;;;1.10;;
5704;SDS011;2877;48.238;11.160;2023-05-10T14:06:19;8.13;;;1.67;;
5704;SDS011;2877;48.238;11.160;2023-05-10T14:08:45;3.90;;;1.00;;
5704;SDS011;2877;48.238;11.160;2023-05-10T14:11:10;9.00;;;1.23;;
5704;SDS011;2877;48.238;11.160;2023-05-10T14:13:36;5.93;;;2.90;;
5704;SDS011;2877;48.238;11.160;2023-05-10T14:16:02;2.10;;;1.20;;
5704;SDS011;2877;48.238;11.160;2023-05-10T14:18:27;1.63;;;1.50;;
5704;SDS011;2877;48.238;11.160;2023-05-10T14:20:53;1.13;;;1.13;;
5704;SDS011;2877;48.238;11.160;2023-05-10T14:23:20;1.50;;;1.30;;
5704;SDS011;2877;48.238;11.160;2023-05-10T14:25:49;2.40;;;1.40;;
5704;SDS011;2877;48.238;11.160;2023-05-10T14:28:15;1.83;;;1.50;;
5704;SDS011;2877;48.238;11.160;2023-05-10T14:30:42;4.50;;;1.33;;
5704;SDS011;2877;48.238;11.160;2023-05-10T14:33:08;1.30;;;1.20;;
5704;SDS011;2877;48.238;11.160;2023-05-10T14:35:33;0.90;;;0.90;;
5704;SDS011;2877;48.238;11.160;2023-05-10T14:37:59;1.83;;;1.10;;
5704;SDS011;2877;48.238;11.160;2023-05-10T14:40:24;5.33;;;2.13;;
5704;SDS011;2877;48.238;11.160;2023-05-10T14:42:50;2.60;;;1.90;;
5704;SDS011;2877;48.238;11.160;2023-05-10T14:45:17;1.43;;;1.20;;
5704;SDS011;2877;48.238;11.160;2023-05-10T14:47:43;1.47;;;1.20;;
5704;SDS011;2877;48.238;11.160;2023-05-10T14:50:09;1.87;;;1.30;;
5704;SDS011;2877;48.238;11.160;2023-05-10T14:52:35;1.63;;;1.43;;
5704;SDS011;2877;48.238;11.160;2023-05-10T14:55:01;2.93;;;1.60;;
5704;SDS011;2877;48.238;11.160;2023-05-10T14:57:26;0.90;;;0.90;;
5704;SDS011;2877;48.238;11.160;2023-05-10T14:59:54;1.40;;;1.20;;
5704;SDS011;2877;48.238;11.160;2023-05-10T15:02:21;1.50;;;1.23;;
5704;SDS011;2877;48.238;11.160;2023-05-10T15:04:46;1.43;;;1.33;;
5704;SDS011;2877;48.238;11.160;2023-05-10T15:07:12;0.60;;;0.60;;
5704;SDS011;2877;48.238;11.160;2023-05-10T15:09:39;1.10;;;0.77;;
5704;SDS011;2877;48.238;11.160;2023-05-10T15:12:05;1.37;;;1.30;;
5704;SDS011;2877;48.238;11.160;2023-05-10T15:14:30;1.00;;;0.90;;
5704;SDS011;2877;48.238;11.160;2023-05-10T15:16:57;1.80;;;1.30;;
5704;SDS011;2877;48.238;11.160;2023-05-10T15:19:23;1.90;;;1.20;;
5704;SDS011;2877;48.238;11.160;2023-05-10T15:21:49;0.90;;;0.90;;
5704;SDS011;2877;48.238;11.160;2023-05-10T15:24:14;1.33;;;1.03;;
5704;SDS011;2877;48.238;11.160;2023-05-10T15:26:40;1.60;;;1.50;;
5704;SDS011;2877;48.238;11.160;2023-05-10T15:29:05;2.30;;;1.80;;
5704;SDS011;2877;48.238;11.160;2023-05-10T15:31:31;1.40;;;1.40;;
5704;SDS011;2877;48.238;11.160;2023-05-10T15:33:59;2.30;;;1.20;;
5704;SDS011;2877;48.238;11.160;2023-05-10T15:36:25;1.27;;;1.20;;